sensor_id;sensor_type;location;lat;lon;timestamp;P1;durP1;ratioP1;P2;durP2;ratioP2
64011;SDS011;50211;52.768;12.124;2022-07-06T00:01:26;2.85;;;0.95;;
64011;SDS011;50211;52.768;12.124;2022-07-06T00:03:52;4.55;;;1.42;;
64011;SDS011;50211;52.768;12.124;2022-07-06T00:06:17;3.25;;;0.93;;
64011;SDS011;50211;52.768;12.124;2022-07-06T00:08:43;2.33;;;0.90;;
64011;SDS011;50211;52.768;12.124;2022-07-06T00:11:09;1.73;;;0.90;;
64011;SDS011;50211;52.768;12.124;2022-07-06T00:13:35;2.60;;;1.00;;
64011;SDS011;50211;52.768;12.124;2022-07-06T00:16:00;6.70;;;1.20;;
64011;SDS011;50211;52.768;12.124;2022-07-06T00:18:26;1.85;;;0.90;;
64011;SDS011;50211;52.768;12.124;2022-07-06T00:20:52;1.52;;;0.70;;
64011;SDS011;50211;52.768;12.124;2022-07-06T00:23:17;4.55;;;1.13;;
64011;SDS011;50211;52.768;12.124;2022-07-06T00:25:43;3.33;;;0.82;;
64011;SDS011;50211;52.768;12.124;2022-07-06T00:28:08;5.18;;;0.80;;
64011;SDS011;50211;52.768;12.124;2022-07-06T00:30:34;4.15;;;0.90;;
64011;SDS011;50211;52.768;12.124;2022-07-06T00:32:59;3.10;;;1.20;;
64011;SDS011;50211;52.768;12.124;2022-07-06T00:35:25;1.58;;;1.00;;
64011;SDS011;50211;52.768;12.124;2022-07-06T00:37:50;6.65;;;1.30;;
64011;SDS011;50211;52.768;12.124;2022-07-06T00:40:16;2.90;;;1.08;;
64011;SDS011;50211;52.768;12.124;2022-07-06T00:42:43;3.35;;;1.10;;
64011;SDS011;50211;52.768;12.124;2022-07-06T00:45:12;3.35;;;1.15;;
64011;SDS011;50211;52.768;12.124;2022-07-06T00:47:39;3.35;;;1.00;;
64011;SDS011;50211;52.768;12.124;2022-07-06T00:50:06;5.40;;;1.00;;
64011;SDS011;50211;52.768;12.124;2022-07-06T00:52:47;4.07;;;1.10;;
64011;SDS011;50211;52.768;12.124;2022-07-06T00:55:13;3.50;;;1.02;;
64011;SDS011;50211;52.768;12.124;2022-07-06T00:57:39;7.05;;;1.15;;
64011;SDS011;50211;52.768;12.124;2022-07-06T01:00:07;4.13;;;1.10;;
64011;SDS011;50211;52.768;12.124;2022-07-06T01:02:35;2.38;;;1.15;;
64011;SDS011;50211;52.768;12.124;2022-07-06T01:05:04;3.50;;;1.40;;
64011;SDS011;50211;52.768;12.124;2022-07-06T01:07:31;3.83;;;1.40;;
64011;SDS011;50211;52.768;12.124;2022-07-06T01:09:58;2.17;;;1.08;;
64011;SDS011;50211;52.768;12.124;2022-07-06T01:12:23;3.50;;;1.10;;
64011;SDS011;50211;52.768;12.124;2022-07-06T01:14:49;7.40;;;1.33;;
64011;SDS011;50211;52.768;12.124;2022-07-06T01:17:15;4.57;;;1.10;;
64011;SDS011;50211;52.768;12.124;2022-07-06T01:19:42;2.30;;;1.33;;
64011;SDS011;50211;52.768;12.124;2022-07-06T01:22:08;2.15;;;1.13;;
64011;SDS011;50211;52.768;12.124;2022-07-06T01:24:37;2.08;;;1.13;;
64011;SDS011;50211;52.768;12.124;2022-07-06T01:27:03;8.80;;;1.67;;
64011;SDS011;50211;52.768;12.124;2022-07-06T01:29:29;2.45;;;1.15;;
64011;SDS011;50211;52.768;12.124;2022-07-06T01:31:56;3.33;;;1.20;;
64011;SDS011;50211;52.768;12.124;2022-07-06T01:34:21;7.78;;;1.50;;
64011;SDS011;50211;52.768;12.124;2022-07-06T01:36:47;4.68;;;1.17;;
64011;SDS011;50211;52.768;12.124;2022-07-06T01:39:12;2.60;;;1.20;;
64011;SDS011;50211;52.768;12.124;2022-07-06T01:41:38;4.78;;;1.50;;
64011;SDS011;50211;52.768;12.124;2022-07-06T01:44:04;5.82;;;1.17;;
64011;SDS011;50211;52.768;12.124;2022-07-06T01:46:30;1.40;;;1.10;;
64011;SDS011;50211;52.768;12.124;2022-07-06T01:48:56;4.65;;;1.33;;
64011;SDS011;50211;52.768;12.124;2022-07-06T01:51:22;3.85;;;1.23;;
64011;SDS011;50211;52.768;12.124;2022-07-06T01:53:49;3.33;;;1.50;;
64011;SDS011;50211;52.768;12.124;2022-07-06T01:56:15;2.95;;;1.52;;
64011;SDS011;50211;52.768;12.124;2022-07-06T01:58:42;4.63;;;1.20;;
64011;SDS011;50211;52.768;12.124;2022-07-06T02:01:11;3.45;;;1.27;;
64011;SDS011;50211;52.768;12.124;2022-07-06T02:03:38;6.53;;;1.80;;
64011;SDS011;50211;52.768;12.124;2022-07-06T02:06:04;1.73;;;1.17;;
64011;SDS011;50211;52.768;12.124;2022-07-06T02:08:30;3.85;;;1.40;;
64011;SDS011;50211;52.768;12.124;2022-07-06T02:10:56;1.55;;;1.17;;
64011;SDS011;50211;52.768;12.124;2022-07-06T02:13:22;4.97;;;1.40;;
64011;SDS011;50211;52.768;12.124;2022-07-06T02:15:48;4.78;;;1.25;;
64011;SDS011;50211;52.768;12.124;2022-07-06T02:18:13;2.75;;;1.40;;
64011;SDS011;50211;52.768;12.124;2022-07-06T02:20:39;3.35;;;1.38;;
64011;SDS011;50211;52.768;12.124;2022-07-06T02:23:05;5.40;;;1.92;;
64011;SDS011;50211;52.768;12.124;2022-07-06T02:25:30;3.97;;;1.40;;
64011;SDS011;50211;52.768;12.124;2022-07-06T02:27:56;2.38;;;1.60;;
64011;SDS011;50211;52.768;12.124;2022-07-06T02:30:21;2.83;;;1.60;;
64011;SDS011;50211;52.768;12.124;2022-07-06T02:32:47;3.92;;;1.50;;
64011;SDS011;50211;52.768;12.124;2022-07-06T02:35:12;3.85;;;1.25;;
64011;SDS011;50211;52.768;12.124;2022-07-06T02:37:38;2.67;;;1.80;;
64011;SDS011;50211;52.768;12.124;2022-07-06T02:40:03;4.10;;;1.50;;
64011;SDS011;50211;52.768;12.124;2022-07-06T02:42:30;7.05;;;1.50;;
64011;SDS011;50211;52.768;12.124;2022-07-06T02:44:55;5.60;;;1.63;;
64011;SDS011;50211;52.768;12.124;2022-07-06T02:47:21;5.13;;;1.70;;
64011;SDS011;50211;52.768;12.124;2022-07-06T02:49:46;5.43;;;1.47;;
64011;SDS011;50211;52.768;12.124;2022-07-06T02:52:12;3.42;;;1.40;;
64011;SDS011;50211;52.768;12.124;2022-07-06T02:54:38;7.03;;;1.75;;
64011;SDS011;50211;52.768;12.124;2022-07-06T02:57:03;3.90;;;1.40;;
64011;SDS011;50211;52.768;12.124;2022-07-06T02:59:29;2.65;;;1.35;;
64011;SDS011;50211;52.768;12.124;2022-07-06T03:01:54;3.35;;;1.50;;
64011;SDS011;50211;52.768;12.124;2022-07-06T03:04:20;5.18;;;1.30;;
64011;SDS011;50211;52.768;12.124;2022-07-06T03:06:45;3.13;;;1.33;;
64011;SDS011;50211;52.768;12.124;2022-07-06T03:09:11;3.30;;;1.50;;
64011;SDS011;50211;52.768;12.124;2022-07-06T03:11:36;4.83;;;1.60;;
64011;SDS011;50211;52.768;12.124;2022-07-06T03:14:02;4.53;;;1.50;;
64011;SDS011;50211;52.768;12.124;2022-07-06T03:16:28;5.20;;;1.40;;
64011;SDS011;50211;52.768;12.124;2022-07-06T03:18:54;4.80;;;1.50;;
64011;SDS011;50211;52.768;12.124;2022-07-06T03:21:19;4.25;;;1.27;;
64011;SDS011;50211;52.768;12.124;2022-07-06T03:23:45;4.03;;;1.40;;
64011;SDS011;50211;52.768;12.124;2022-07-06T03:26:10;6.40;;;1.85;;
64011;SDS011;50211;52.768;12.124;2022-07-06T03:28:36;1.58;;;1.27;;
64011;SDS011;50211;52.768;12.124;2022-07-06T03:31:01;5.93;;;1.40;;
64011;SDS011;50211;52.768;12.124;2022-07-06T03:33:27;5.50;;;1.50;;
64011;SDS011;50211;52.768;12.124;2022-07-06T03:35:52;3.22;;;1.60;;
64011;SDS011;50211;52.768;12.124;2022-07-06T03:38:18;2.40;;;1.37;;
64011;SDS011;50211;52.768;12.124;2022-07-06T03:40:43;2.47;;;1.08;;
64011;SDS011;50211;52.768;12.124;2022-07-06T03:43:09;4.77;;;1.40;;
64011;SDS011;50211;52.768;12.124;2022-07-06T03:45:34;2.90;;;1.47;;
64011;SDS011;50211;52.768;12.124;2022-07-06T03:48:00;3.75;;;1.58;;
64011;SDS011;50211;52.768;12.124;2022-07-06T03:50:25;4.40;;;1.20;;
64011;SDS011;50211;52.768;12.124;2022-07-06T03:52:50;7.63;;;1.50;;
64011;SDS011;50211;52.768;12.124;2022-07-06T03:55:16;5.45;;;1.15;;
64011;SDS011;50211;52.768;12.124;2022-07-06T03:57:41;5.07;;;1.40;;
64011;SDS011;50211;52.768;12.124;2022-07-06T04:00:07;3.05;;;1.42;;
64011;SDS011;50211;52.768;12.124;2022-07-06T04:02:34;4.83;;;1.30;;
64011;SDS011;50211;52.768;12.124;2022-07-06T04:04:59;2.80;;;1.48;;
64011;SDS011;50211;52.768;12.124;2022-07-06T04:07:25;1.53;;;1.10;;
64011;SDS011;50211;52.768;12.124;2022-07-06T04:09:51;2.05;;;1.40;;
64011;SDS011;50211;52.768;12.124;2022-07-06T04:12:17;3.70;;;1.38;;
64011;SDS011;50211;52.768;12.124;2022-07-06T04:14:42;4.53;;;1.43;;
64011;SDS011;50211;52.768;12.124;2022-07-06T04:17:08;5.47;;;1.52;;
64011;SDS011;50211;52.768;12.124;2022-07-06T04:19:52;3.25;;;1.38;;
64011;SDS011;50211;52.768;12.124;2022-07-06T04:22:18;2.92;;;1.40;;
64011;SDS011;50211;52.768;12.124;2022-07-06T04:24:43;3.53;;;1.30;;
64011;SDS011;50211;52.768;12.124;2022-07-06T04:27:09;4.97;;;1.52;;
64011;SDS011;50211;52.768;12.124;2022-07-06T04:29:34;5.50;;;1.83;;
64011;SDS011;50211;52.768;12.124;2022-07-06T04:32:00;3.00;;;1.48;;
64011;SDS011;50211;52.768;12.124;2022-07-06T04:34:25;4.47;;;1.58;;
64011;SDS011;50211;52.768;12.124;2022-07-06T04:36:51;6.25;;;1.55;;
64011;SDS011;50211;52.768;12.124;2022-07-06T04:39:17;5.90;;;1.33;;
64011;SDS011;50211;52.768;12.124;2022-07-06T04:41:42;2.93;;;1.73;;
64011;SDS011;50211;52.768;12.124;2022-07-06T04:44:08;8.57;;;1.88;;
64011;SDS011;50211;52.768;12.124;2022-07-06T04:46:33;2.72;;;1.27;;
64011;SDS011;50211;52.768;12.124;2022-07-06T04:48:59;5.25;;;1.60;;
64011;SDS011;50211;52.768;12.124;2022-07-06T04:51:24;12.77;;;1.73;;
64011;SDS011;50211;52.768;12.124;2022-07-06T04:53:50;7.97;;;1.70;;
64011;SDS011;50211;52.768;12.124;2022-07-06T04:56:15;6.00;;;1.73;;
64011;SDS011;50211;52.768;12.124;2022-07-06T04:58:41;6.20;;;1.40;;
64011;SDS011;50211;52.768;12.124;2022-07-06T05:01:06;8.35;;;1.80;;
64011;SDS011;50211;52.768;12.124;2022-07-06T05:03:33;7.35;;;1.80;;
64011;SDS011;50211;52.768;12.124;2022-07-06T05:06:02;4.15;;;1.50;;
64011;SDS011;50211;52.768;12.124;2022-07-06T05:08:30;4.43;;;1.23;;
64011;SDS011;50211;52.768;12.124;2022-07-06T05:10:55;4.78;;;1.45;;
64011;SDS011;50211;52.768;12.124;2022-07-06T05:13:21;6.68;;;1.50;;
64011;SDS011;50211;52.768;12.124;2022-07-06T05:15:46;1.95;;;1.42;;
64011;SDS011;50211;52.768;12.124;2022-07-06T05:18:12;4.63;;;1.55;;
64011;SDS011;50211;52.768;12.124;2022-07-06T05:20:37;3.95;;;1.45;;
64011;SDS011;50211;52.768;12.124;2022-07-06T05:23:03;3.60;;;1.40;;
64011;SDS011;50211;52.768;12.124;2022-07-06T05:25:28;6.60;;;1.50;;
64011;SDS011;50211;52.768;12.124;2022-07-06T05:27:54;3.88;;;1.40;;
64011;SDS011;50211;52.768;12.124;2022-07-06T05:30:20;5.32;;;1.40;;
64011;SDS011;50211;52.768;12.124;2022-07-06T05:32:46;1.77;;;1.10;;
64011;SDS011;50211;52.768;12.124;2022-07-06T05:35:11;4.68;;;1.38;;
64011;SDS011;50211;52.768;12.124;2022-07-06T05:37:37;4.18;;;1.45;;
64011;SDS011;50211;52.768;12.124;2022-07-06T05:40:02;6.85;;;1.98;;
64011;SDS011;50211;52.768;12.124;2022-07-06T05:42:28;2.33;;;1.27;;
64011;SDS011;50211;52.768;12.124;2022-07-06T05:44:54;3.60;;;1.13;;
64011;SDS011;50211;52.768;12.124;2022-07-06T05:47:21;7.03;;;1.50;;
64011;SDS011;50211;52.768;12.124;2022-07-06T05:50:18;5.13;;;1.30;;
64011;SDS011;50211;52.768;12.124;2022-07-06T05:52:47;7.40;;;1.13;;
64011;SDS011;50211;52.768;12.124;2022-07-06T05:55:23;3.47;;;1.10;;
64011;SDS011;50211;52.768;12.124;2022-07-06T05:57:49;4.07;;;1.25;;
64011;SDS011;50211;52.768;12.124;2022-07-06T06:00:15;4.07;;;1.60;;
64011;SDS011;50211;52.768;12.124;2022-07-06T06:02:41;11.40;;;5.07;;
64011;SDS011;50211;52.768;12.124;2022-07-06T06:05:08;2.80;;;1.58;;
64011;SDS011;50211;52.768;12.124;2022-07-06T06:07:35;6.35;;;1.30;;
64011;SDS011;50211;52.768;12.124;2022-07-06T06:10:02;3.03;;;1.20;;
64011;SDS011;50211;52.768;12.124;2022-07-06T06:12:31;8.07;;;1.40;;
64011;SDS011;50211;52.768;12.124;2022-07-06T06:14:57;3.42;;;1.17;;
64011;SDS011;50211;52.768;12.124;2022-07-06T06:17:22;4.35;;;1.13;;
64011;SDS011;50211;52.768;12.124;2022-07-06T06:19:48;3.10;;;1.08;;
64011;SDS011;50211;52.768;12.124;2022-07-06T06:22:13;4.70;;;1.10;;
64011;SDS011;50211;52.768;12.124;2022-07-06T06:24:39;9.25;;;1.75;;
64011;SDS011;50211;52.768;12.124;2022-07-06T06:27:05;5.53;;;1.30;;
64011;SDS011;50211;52.768;12.124;2022-07-06T06:29:30;3.15;;;1.10;;
64011;SDS011;50211;52.768;12.124;2022-07-06T06:31:56;2.70;;;1.20;;
64011;SDS011;50211;52.768;12.124;2022-07-06T06:34:21;3.28;;;1.40;;
64011;SDS011;50211;52.768;12.124;2022-07-06T06:36:47;4.63;;;1.05;;
64011;SDS011;50211;52.768;12.124;2022-07-06T06:39:12;5.82;;;1.35;;
64011;SDS011;50211;52.768;12.124;2022-07-06T06:41:38;4.95;;;1.08;;
64011;SDS011;50211;52.768;12.124;2022-07-06T06:44:03;4.40;;;1.40;;
64011;SDS011;50211;52.768;12.124;2022-07-06T06:46:29;4.90;;;1.17;;
64011;SDS011;50211;52.768;12.124;2022-07-06T06:48:54;3.40;;;1.05;;
64011;SDS011;50211;52.768;12.124;2022-07-06T06:51:20;3.53;;;1.00;;
64011;SDS011;50211;52.768;12.124;2022-07-06T06:53:45;10.00;;;1.20;;
64011;SDS011;50211;52.768;12.124;2022-07-06T06:56:11;4.25;;;0.90;;
64011;SDS011;50211;52.768;12.124;2022-07-06T06:58:37;4.32;;;0.90;;
64011;SDS011;50211;52.768;12.124;2022-07-06T07:01:02;5.45;;;1.20;;
64011;SDS011;50211;52.768;12.124;2022-07-06T07:03:29;3.53;;;1.10;;
64011;SDS011;50211;52.768;12.124;2022-07-06T07:05:55;0.80;;;0.60;;
64011;SDS011;50211;52.768;12.124;2022-07-06T07:08:20;4.50;;;1.00;;
64011;SDS011;50211;52.768;12.124;2022-07-06T07:10:46;2.30;;;0.77;;
64011;SDS011;50211;52.768;12.124;2022-07-06T07:13:11;10.18;;;1.13;;
64011;SDS011;50211;52.768;12.124;2022-07-06T07:15:37;3.13;;;1.13;;
64011;SDS011;50211;52.768;12.124;2022-07-06T07:18:02;3.78;;;1.15;;
64011;SDS011;50211;52.768;12.124;2022-07-06T07:20:28;3.05;;;0.73;;
64011;SDS011;50211;52.768;12.124;2022-07-06T07:22:54;4.03;;;0.90;;
64011;SDS011;50211;52.768;12.124;2022-07-06T07:25:20;3.47;;;0.80;;
64011;SDS011;50211;52.768;12.124;2022-07-06T07:27:46;2.30;;;0.80;;
64011;SDS011;50211;52.768;12.124;2022-07-06T07:30:11;5.20;;;1.10;;
64011;SDS011;50211;52.768;12.124;2022-07-06T07:32:37;3.60;;;0.90;;
64011;SDS011;50211;52.768;12.124;2022-07-06T07:35:05;6.78;;;0.93;;
64011;SDS011;50211;52.768;12.124;2022-07-06T07:37:31;2.40;;;0.70;;
64011;SDS011;50211;52.768;12.124;2022-07-06T07:39:56;1.25;;;0.70;;
64011;SDS011;50211;52.768;12.124;2022-07-06T07:42:22;4.70;;;0.80;;
64011;SDS011;50211;52.768;12.124;2022-07-06T07:44:47;5.50;;;0.98;;
64011;SDS011;50211;52.768;12.124;2022-07-06T07:47:13;6.90;;;1.02;;
64011;SDS011;50211;52.768;12.124;2022-07-06T07:49:38;3.65;;;0.90;;
64011;SDS011;50211;52.768;12.124;2022-07-06T07:52:04;4.30;;;1.00;;
64011;SDS011;50211;52.768;12.124;2022-07-06T07:54:30;4.25;;;0.80;;
64011;SDS011;50211;52.768;12.124;2022-07-06T07:56:55;4.07;;;0.85;;
64011;SDS011;50211;52.768;12.124;2022-07-06T07:59:21;2.83;;;0.82;;
64011;SDS011;50211;52.768;12.124;2022-07-06T08:01:47;3.03;;;0.70;;
64011;SDS011;50211;52.768;12.124;2022-07-06T08:04:13;2.05;;;0.70;;
64011;SDS011;50211;52.768;12.124;2022-07-06T08:06:38;1.90;;;0.80;;
64011;SDS011;50211;52.768;12.124;2022-07-06T08:09:04;2.53;;;0.75;;
64011;SDS011;50211;52.768;12.124;2022-07-06T08:11:32;4.40;;;0.73;;
64011;SDS011;50211;52.768;12.124;2022-07-06T08:13:58;3.38;;;0.80;;
64011;SDS011;50211;52.768;12.124;2022-07-06T08:16:24;4.22;;;0.88;;
64011;SDS011;50211;52.768;12.124;2022-07-06T08:18:49;2.80;;;0.80;;
64011;SDS011;50211;52.768;12.124;2022-07-06T08:21:15;1.48;;;0.60;;
64011;SDS011;50211;52.768;12.124;2022-07-06T08:23:40;2.58;;;0.73;;
64011;SDS011;50211;52.768;12.124;2022-07-06T08:26:06;3.83;;;1.00;;
64011;SDS011;50211;52.768;12.124;2022-07-06T08:28:31;4.55;;;0.90;;
64011;SDS011;50211;52.768;12.124;2022-07-06T08:30:57;1.75;;;0.63;;
64011;SDS011;50211;52.768;12.124;2022-07-06T08:33:22;1.67;;;0.60;;
64011;SDS011;50211;52.768;12.124;2022-07-06T08:35:48;5.70;;;0.80;;
64011;SDS011;50211;52.768;12.124;2022-07-06T08:38:13;0.75;;;0.50;;
64011;SDS011;50211;52.768;12.124;2022-07-06T08:40:40;5.13;;;0.65;;
64011;SDS011;50211;52.768;12.124;2022-07-06T08:43:08;3.20;;;0.70;;
64011;SDS011;50211;52.768;12.124;2022-07-06T08:45:34;1.20;;;0.73;;
64011;SDS011;50211;52.768;12.124;2022-07-06T08:48:04;4.10;;;0.68;;
64011;SDS011;50211;52.768;12.124;2022-07-06T08:50:31;2.22;;;0.55;;
64011;SDS011;50211;52.768;12.124;2022-07-06T08:52:58;2.45;;;0.60;;
64011;SDS011;50211;52.768;12.124;2022-07-06T08:55:24;3.60;;;0.65;;
64011;SDS011;50211;52.768;12.124;2022-07-06T08:57:51;6.60;;;0.95;;
64011;SDS011;50211;52.768;12.124;2022-07-06T09:00:16;2.22;;;0.57;;
64011;SDS011;50211;52.768;12.124;2022-07-06T09:02:42;2.60;;;0.80;;
64011;SDS011;50211;52.768;12.124;2022-07-06T09:05:08;6.90;;;1.00;;
64011;SDS011;50211;52.768;12.124;2022-07-06T09:07:37;3.10;;;0.75;;
64011;SDS011;50211;52.768;12.124;2022-07-06T09:10:04;4.45;;;0.80;;
64011;SDS011;50211;52.768;12.124;2022-07-06T09:12:32;2.35;;;0.70;;
64011;SDS011;50211;52.768;12.124;2022-07-06T09:14:58;2.53;;;0.50;;
64011;SDS011;50211;52.768;12.124;2022-07-06T09:17:27;0.93;;;0.50;;
64011;SDS011;50211;52.768;12.124;2022-07-06T09:19:54;2.75;;;0.65;;
64011;SDS011;50211;52.768;12.124;2022-07-06T09:24:52;1.40;;;0.40;;
64011;SDS011;50211;52.768;12.124;2022-07-06T09:27:25;1.88;;;0.60;;
64011;SDS011;50211;52.768;12.124;2022-07-06T09:29:51;1.80;;;0.60;;
64011;SDS011;50211;52.768;12.124;2022-07-06T09:32:19;1.90;;;0.55;;
64011;SDS011;50211;52.768;12.124;2022-07-06T09:34:46;3.05;;;0.40;;
64011;SDS011;50211;52.768;12.124;2022-07-06T09:37:12;1.77;;;0.73;;
64011;SDS011;50211;52.768;12.124;2022-07-06T09:39:38;2.75;;;0.57;;
64011;SDS011;50211;52.768;12.124;2022-07-06T09:42:04;6.30;;;0.70;;
64011;SDS011;50211;52.768;12.124;2022-07-06T09:44:34;5.45;;;0.80;;
64011;SDS011;50211;52.768;12.124;2022-07-06T09:47:05;2.47;;;0.50;;
64011;SDS011;50211;52.768;12.124;2022-07-06T09:49:33;5.55;;;1.23;;
64011;SDS011;50211;52.768;12.124;2022-07-06T09:51:59;2.65;;;0.63;;
64011;SDS011;50211;52.768;12.124;2022-07-06T09:54:26;2.22;;;0.63;;
64011;SDS011;50211;52.768;12.124;2022-07-06T09:56:52;1.27;;;0.43;;
64011;SDS011;50211;52.768;12.124;2022-07-06T09:59:19;0.50;;;0.50;;
64011;SDS011;50211;52.768;12.124;2022-07-06T10:01:46;1.00;;;0.50;;
64011;SDS011;50211;52.768;12.124;2022-07-06T10:04:13;2.05;;;0.80;;
64011;SDS011;50211;52.768;12.124;2022-07-06T10:06:39;2.70;;;0.65;;
64011;SDS011;50211;52.768;12.124;2022-07-06T10:09:06;3.05;;;0.60;;
64011;SDS011;50211;52.768;12.124;2022-07-06T10:11:54;3.13;;;0.90;;
64011;SDS011;50211;52.768;12.124;2022-07-06T10:14:23;6.55;;;0.98;;
64011;SDS011;50211;52.768;12.124;2022-07-06T10:16:50;4.30;;;0.82;;
64011;SDS011;50211;52.768;12.124;2022-07-06T10:19:17;3.90;;;1.00;;
64011;SDS011;50211;52.768;12.124;2022-07-06T10:21:44;6.63;;;0.90;;
64011;SDS011;50211;52.768;12.124;2022-07-06T10:24:11;8.57;;;0.95;;
64011;SDS011;50211;52.768;12.124;2022-07-06T10:26:38;5.28;;;0.70;;
64011;SDS011;50211;52.768;12.124;2022-07-06T10:29:04;3.30;;;0.90;;
64011;SDS011;50211;52.768;12.124;2022-07-06T10:31:31;3.70;;;0.70;;
64011;SDS011;50211;52.768;12.124;2022-07-06T10:33:59;3.65;;;0.80;;
64011;SDS011;50211;52.768;12.124;2022-07-06T10:36:27;1.30;;;0.60;;
64011;SDS011;50211;52.768;12.124;2022-07-06T10:38:53;4.85;;;0.90;;
64011;SDS011;50211;52.768;12.124;2022-07-06T10:41:29;6.45;;;0.82;;
64011;SDS011;50211;52.768;12.124;2022-07-06T10:43:56;1.90;;;0.52;;
64011;SDS011;50211;52.768;12.124;2022-07-06T10:46:23;2.38;;;0.63;;
64011;SDS011;50211;52.768;12.124;2022-07-06T10:48:53;3.42;;;0.82;;
64011;SDS011;50211;52.768;12.124;2022-07-06T10:51:23;2.95;;;0.70;;
64011;SDS011;50211;52.768;12.124;2022-07-06T10:53:57;2.35;;;0.85;;
64011;SDS011;50211;52.768;12.124;2022-07-06T10:56:36;2.10;;;0.65;;
64011;SDS011;50211;52.768;12.124;2022-07-06T11:04:39;1.23;;;0.45;;
64011;SDS011;50211;52.768;12.124;2022-07-06T11:07:09;3.78;;;0.60;;
64011;SDS011;50211;52.768;12.124;2022-07-06T11:09:57;2.75;;;0.60;;
64011;SDS011;50211;52.768;12.124;2022-07-06T11:12:24;4.43;;;0.90;;
64011;SDS011;50211;52.768;12.124;2022-07-06T11:14:50;2.10;;;0.80;;
64011;SDS011;50211;52.768;12.124;2022-07-06T11:17:17;1.73;;;0.60;;
64011;SDS011;50211;52.768;12.124;2022-07-06T11:19:50;7.55;;;0.90;;
64011;SDS011;50211;52.768;12.124;2022-07-06T11:22:22;2.63;;;0.50;;
64011;SDS011;50211;52.768;12.124;2022-07-06T11:24:51;2.60;;;0.70;;
64011;SDS011;50211;52.768;12.124;2022-07-06T11:27:18;1.70;;;0.45;;
64011;SDS011;50211;52.768;12.124;2022-07-06T11:29:43;5.53;;;0.63;;
64011;SDS011;50211;52.768;12.124;2022-07-06T11:32:10;1.13;;;0.50;;
64011;SDS011;50211;52.768;12.124;2022-07-06T11:34:38;2.33;;;0.40;;
64011;SDS011;50211;52.768;12.124;2022-07-06T11:37:11;2.90;;;0.45;;
64011;SDS011;50211;52.768;12.124;2022-07-06T11:39:39;2.10;;;0.55;;
64011;SDS011;50211;52.768;12.124;2022-07-06T11:42:08;2.92;;;0.40;;
64011;SDS011;50211;52.768;12.124;2022-07-06T11:44:34;3.75;;;0.50;;
64011;SDS011;50211;52.768;12.124;2022-07-06T11:47:01;2.53;;;0.52;;
64011;SDS011;50211;52.768;12.124;2022-07-06T11:49:29;2.40;;;0.50;;
64011;SDS011;50211;52.768;12.124;2022-07-06T11:51:55;1.50;;;0.65;;
64011;SDS011;50211;52.768;12.124;2022-07-06T11:54:22;2.92;;;0.50;;
64011;SDS011;50211;52.768;12.124;2022-07-06T11:56:52;4.35;;;0.75;;
64011;SDS011;50211;52.768;12.124;2022-07-06T11:59:29;0.70;;;0.40;;
64011;SDS011;50211;52.768;12.124;2022-07-06T12:02:03;1.65;;;0.50;;
64011;SDS011;50211;52.768;12.124;2022-07-06T12:04:30;1.17;;;0.60;;
64011;SDS011;50211;52.768;12.124;2022-07-06T12:07:01;3.53;;;0.40;;
64011;SDS011;50211;52.768;12.124;2022-07-06T12:09:34;2.35;;;0.57;;
64011;SDS011;50211;52.768;12.124;2022-07-06T12:12:01;3.42;;;0.60;;
64011;SDS011;50211;52.768;12.124;2022-07-06T12:14:28;4.45;;;0.80;;
64011;SDS011;50211;52.768;12.124;2022-07-06T12:16:55;4.28;;;0.47;;
64011;SDS011;50211;52.768;12.124;2022-07-06T12:19:26;0.93;;;0.57;;
64011;SDS011;50211;52.768;12.124;2022-07-06T12:21:52;3.97;;;0.40;;
64011;SDS011;50211;52.768;12.124;2022-07-06T12:24:21;1.50;;;0.68;;
64011;SDS011;50211;52.768;12.124;2022-07-06T12:26:49;1.38;;;0.40;;
64011;SDS011;50211;52.768;12.124;2022-07-06T12:29:15;2.55;;;0.40;;
64011;SDS011;50211;52.768;12.124;2022-07-06T12:34:13;2.05;;;0.70;;
64011;SDS011;50211;52.768;12.124;2022-07-06T12:36:53;4.38;;;0.60;;
64011;SDS011;50211;52.768;12.124;2022-07-06T12:39:20;4.68;;;1.50;;
64011;SDS011;50211;52.768;12.124;2022-07-06T12:41:50;0.45;;;0.30;;
64011;SDS011;50211;52.768;12.124;2022-07-06T12:44:18;6.00;;;0.50;;
64011;SDS011;50211;52.768;12.124;2022-07-06T12:46:46;1.00;;;0.43;;
64011;SDS011;50211;52.768;12.124;2022-07-06T12:49:14;1.90;;;0.60;;
64011;SDS011;50211;52.768;12.124;2022-07-06T12:54:25;4.80;;;0.70;;
64011;SDS011;50211;52.768;12.124;2022-07-06T12:59:29;1.73;;;0.77;;
64011;SDS011;50211;52.768;12.124;2022-07-06T13:01:56;1.00;;;0.60;;
64011;SDS011;50211;52.768;12.124;2022-07-06T13:04:23;1.20;;;0.70;;
64011;SDS011;50211;52.768;12.124;2022-07-06T13:06:49;2.88;;;0.60;;
64011;SDS011;50211;52.768;12.124;2022-07-06T13:09:14;2.47;;;0.88;;
64011;SDS011;50211;52.768;12.124;2022-07-06T13:11:41;6.45;;;0.80;;
64011;SDS011;50211;52.768;12.124;2022-07-06T13:14:07;4.15;;;1.02;;
64011;SDS011;50211;52.768;12.124;2022-07-06T13:16:34;3.80;;;0.80;;
64011;SDS011;50211;52.768;12.124;2022-07-06T13:19:00;2.22;;;0.43;;
64011;SDS011;50211;52.768;12.124;2022-07-06T13:21:26;4.28;;;0.75;;
64011;SDS011;50211;52.768;12.124;2022-07-06T13:23:52;9.25;;;0.55;;
64011;SDS011;50211;52.768;12.124;2022-07-06T13:26:17;1.95;;;0.70;;
64011;SDS011;50211;52.768;12.124;2022-07-06T13:28:43;1.75;;;0.57;;
64011;SDS011;50211;52.768;12.124;2022-07-06T13:31:08;5.47;;;0.50;;
64011;SDS011;50211;52.768;12.124;2022-07-06T13:33:34;1.75;;;0.30;;
64011;SDS011;50211;52.768;12.124;2022-07-06T13:36:00;3.60;;;0.63;;
64011;SDS011;50211;52.768;12.124;2022-07-06T13:38:26;4.53;;;0.82;;
64011;SDS011;50211;52.768;12.124;2022-07-06T13:40:52;2.67;;;0.60;;
64011;SDS011;50211;52.768;12.124;2022-07-06T13:43:18;1.85;;;0.60;;
64011;SDS011;50211;52.768;12.124;2022-07-06T13:45:43;0.65;;;0.38;;
64011;SDS011;50211;52.768;12.124;2022-07-06T13:48:10;1.55;;;0.43;;
64011;SDS011;50211;52.768;12.124;2022-07-06T13:50:35;0.45;;;0.28;;
64011;SDS011;50211;52.768;12.124;2022-07-06T13:53:01;6.07;;;0.50;;
64011;SDS011;50211;52.768;12.124;2022-07-06T13:55:26;1.08;;;0.40;;
64011;SDS011;50211;52.768;12.124;2022-07-06T13:57:52;1.23;;;0.30;;
64011;SDS011;50211;52.768;12.124;2022-07-06T14:00:17;0.32;;;0.30;;
64011;SDS011;50211;52.768;12.124;2022-07-06T14:02:43;2.15;;;0.50;;
64011;SDS011;50211;52.768;12.124;2022-07-06T14:05:09;6.03;;;1.27;;
64011;SDS011;50211;52.768;12.124;2022-07-06T14:07:35;1.95;;;0.60;;
64011;SDS011;50211;52.768;12.124;2022-07-06T14:10:01;0.55;;;0.30;;
64011;SDS011;50211;52.768;12.124;2022-07-06T14:12:26;1.13;;;0.30;;
64011;SDS011;50211;52.768;12.124;2022-07-06T14:14:52;0.40;;;0.40;;
64011;SDS011;50211;52.768;12.124;2022-07-06T14:17:17;0.40;;;0.40;;
64011;SDS011;50211;52.768;12.124;2022-07-06T14:19:43;0.82;;;0.40;;
64011;SDS011;50211;52.768;12.124;2022-07-06T14:22:09;3.00;;;0.40;;
64011;SDS011;50211;52.768;12.124;2022-07-06T14:24:34;2.83;;;0.40;;
64011;SDS011;50211;52.768;12.124;2022-07-06T14:27:00;2.53;;;0.50;;
64011;SDS011;50211;52.768;12.124;2022-07-06T14:29:25;0.65;;;0.30;;
64011;SDS011;50211;52.768;12.124;2022-07-06T14:31:51;0.55;;;0.40;;
64011;SDS011;50211;52.768;12.124;2022-07-06T14:34:16;1.02;;;0.40;;
64011;SDS011;50211;52.768;12.124;2022-07-06T14:36:42;1.27;;;0.57;;
64011;SDS011;50211;52.768;12.124;2022-07-06T14:39:07;2.13;;;0.40;;
64011;SDS011;50211;52.768;12.124;2022-07-06T14:41:33;1.50;;;0.30;;
64011;SDS011;50211;52.768;12.124;2022-07-06T14:44:00;3.95;;;0.80;;
64011;SDS011;50211;52.768;12.124;2022-07-06T14:46:25;0.77;;;0.40;;